Terminal Aerodrome Forecast
Issued by NWS

Home | Current Version | Previous Version | Text Only | Print | Product List | Glossary On
Versions: 1 2 3 4 5 6 7 8 9 10 11 12 13 14 15 16 17 18 19 20 21 22 23 24 25 26 27 28
996
FTUS46 KSGX 271120
TAFSAN
TAF
KSAN 271120Z 2712/2818 VRB04KT P6SM BKN150 WS015/09020KT
     FM271600 VRB05KT P6SM BKN150
     FM271900 21009KT P6SM BKN120
     FM280200 VRB04KT P6SM BKN100
     FM280800 VRB04KT P6SM SCT100 BKN200=

USA.gov is the U.S. government's official web portal to all federal, state and local government web resources and services.